Dati Storici

Data ora Umidita' aria (%) Temperatura aria (°C) Rad globale (W/m²) Gonioanemometro (°) Tacoanemometro (m/s) Pioggia (mm)
21-06-2020 00:50 77.9 % 20.729 7.18 -0.006 0 0
21-06-2020 00:40 78.8 % 20.733 108.239 -0.014 0 0
21-06-2020 00:30 80.6 % 20.134 91.467 -0.014 0 0
21-06-2020 00:20 80.5 % 20.32 277.552 -0.015 0 0
21-06-2020 00:10 79.1 % 20.392 176.317 -0.011 0 0
21-06-2020 00:00 77.1 % 20.489 165.333 -0.015 0 0
20-06-2020 23:50 76.6 % 20.787 2.327 -0.016 0 0
20-06-2020 23:40 75.9 % 21.113 33.878 -0.017 0 0
20-06-2020 23:30 76.7 % 21.119 18.686 1.056 0 0
20-06-2020 23:20 75 % 21.482 61.102 -0.019 0 0
20-06-2020 23:10 73.8 % 21.768 44.882 -0.015 0 0
20-06-2020 23:00 73 % 21.923 1.83 -0.016 0 0
20-06-2020 22:50 70.9 % 21.861 113.635 -0.017 0 0
20-06-2020 22:40 68.9 % 22.569 2.064 -0.019 0 0
20-06-2020 22:30 68.5 % 22.693 219.542 -0.019 0 0
20-06-2020 22:20 68.1 % 22.659 148.219 1.116 0 0
20-06-2020 22:10 68.3 % 22.751 177.908 1.216 0 0
20-06-2020 22:00 68.6 % 22.8 120.741 0.748 0 0
20-06-2020 21:50 69 % 22.824 80.515 1.799 0 0
20-06-2020 21:40 69 % 22.81 147.457 1.58 0 0

I dati sono presentati in modo automatico a scopo informativo. In seguito a verifica i dati possono subire modifiche o essere invalidati e non riportati negli archivi definitivi.